sensor_id;sensor_type;location;lat;lon;timestamp;P1;durP1;ratioP1;P2;durP2;ratioP2
72369;SDS011;60343;-32.030;115.880;2023-08-12T00:01:00;0.22;;;0.10;;
72369;SDS011;60343;-32.030;115.880;2023-08-12T00:03:35;0.98;;;0.40;;
72369;SDS011;60343;-32.030;115.880;2023-08-12T00:06:09;0.20;;;0.10;;
72369;SDS011;60343;-32.030;115.880;2023-08-12T00:08:44;1.17;;;0.10;;
72369;SDS011;60343;-32.030;115.880;2023-08-12T00:11:18;3.25;;;0.30;;
72369;SDS011;60343;-32.030;115.880;2023-08-12T00:13:53;1.50;;;0.30;;
72369;SDS011;60343;-32.030;115.880;2023-08-12T00:16:33;1.40;;;0.20;;
72369;SDS011;60343;-32.030;115.880;2023-08-12T00:19:08;0.55;;;0.13;;
72369;SDS011;60343;-32.030;115.880;2023-08-12T00:21:42;1.05;;;0.20;;
72369;SDS011;60343;-32.030;115.880;2023-08-12T00:24:19;0.82;;;0.10;;
72369;SDS011;60343;-32.030;115.880;2023-08-12T00:26:53;0.77;;;0.20;;
72369;SDS011;60343;-32.030;115.880;2023-08-12T00:29:28;0.85;;;0.17;;
72369;SDS011;60343;-32.030;115.880;2023-08-12T00:32:09;0.80;;;0.15;;
72369;SDS011;60343;-32.030;115.880;2023-08-12T00:34:44;0.77;;;0.20;;
72369;SDS011;60343;-32.030;115.880;2023-08-12T00:37:18;0.30;;;0.10;;
72369;SDS011;60343;-32.030;115.880;2023-08-12T00:39:53;0.25;;;0.10;;
72369;SDS011;60343;-32.030;115.880;2023-08-12T00:42:28;0.80;;;0.20;;
72369;SDS011;60343;-32.030;115.880;2023-08-12T00:45:02;0.20;;;0.10;;
72369;SDS011;60343;-32.030;115.880;2023-08-12T00:47:44;1.52;;;0.10;;
72369;SDS011;60343;-32.030;115.880;2023-08-12T00:50:19;0.13;;;0.10;;
72369;SDS011;60343;-32.030;115.880;2023-08-12T00:52:54;0.52;;;0.08;;
72369;SDS011;60343;-32.030;115.880;2023-08-12T00:55:29;0.52;;;0.20;;
72369;SDS011;60343;-32.030;115.880;2023-08-12T00:58:04;0.43;;;0.10;;
72369;SDS011;60343;-32.030;115.880;2023-08-12T01:00:39;1.30;;;0.40;;
72369;SDS011;60343;-32.030;115.880;2023-08-12T01:03:19;0.32;;;0.10;;
72369;SDS011;60343;-32.030;115.880;2023-08-12T01:05:54;1.02;;;0.20;;
72369;SDS011;60343;-32.030;115.880;2023-08-12T01:08:30;0.88;;;0.10;;
72369;SDS011;60343;-32.030;115.880;2023-08-12T01:11:12;0.47;;;0.10;;
72369;SDS011;60343;-32.030;115.880;2023-08-12T01:13:57;0.40;;;0.20;;
72369;SDS011;60343;-32.030;115.880;2023-08-12T01:16:39;0.70;;;0.10;;
72369;SDS011;60343;-32.030;115.880;2023-08-12T01:19:27;2.22;;;0.20;;
72369;SDS011;60343;-32.030;115.880;2023-08-12T01:22:07;1.00;;;0.25;;
72369;SDS011;60343;-32.030;115.880;2023-08-12T01:24:48;0.17;;;0.10;;
72369;SDS011;60343;-32.030;115.880;2023-08-12T01:27:24;2.30;;;0.30;;
72369;SDS011;60343;-32.030;115.880;2023-08-12T01:29:59;1.48;;;0.60;;
72369;SDS011;60343;-32.030;115.880;2023-08-12T01:32:37;0.20;;;0.10;;
72369;SDS011;60343;-32.030;115.880;2023-08-12T01:35:17;0.73;;;0.20;;
72369;SDS011;60343;-32.030;115.880;2023-08-12T01:37:54;1.58;;;0.20;;
72369;SDS011;60343;-32.030;115.880;2023-08-12T01:40:37;2.03;;;0.22;;
72369;SDS011;60343;-32.030;115.880;2023-08-12T01:43:13;0.80;;;0.30;;
72369;SDS011;60343;-32.030;115.880;2023-08-12T01:45:48;0.70;;;0.17;;
72369;SDS011;60343;-32.030;115.880;2023-08-12T01:48:23;0.68;;;0.20;;
72369;SDS011;60343;-32.030;115.880;2023-08-12T01:50:58;0.73;;;0.20;;
72369;SDS011;60343;-32.030;115.880;2023-08-12T01:53:32;1.08;;;0.10;;
72369;SDS011;60343;-32.030;115.880;2023-08-12T01:56:12;0.55;;;0.20;;
72369;SDS011;60343;-32.030;115.880;2023-08-12T01:58:47;0.45;;;0.13;;
72369;SDS011;60343;-32.030;115.880;2023-08-12T02:01:21;2.08;;;0.20;;
72369;SDS011;60343;-32.030;115.880;2023-08-12T02:03:56;1.13;;;0.20;;
72369;SDS011;60343;-32.030;115.880;2023-08-12T02:06:30;0.93;;;0.20;;
72369;SDS011;60343;-32.030;115.880;2023-08-12T02:09:05;1.10;;;0.20;;
72369;SDS011;60343;-32.030;115.880;2023-08-12T02:11:45;1.25;;;0.30;;
72369;SDS011;60343;-32.030;115.880;2023-08-12T02:14:20;0.70;;;0.20;;
72369;SDS011;60343;-32.030;115.880;2023-08-12T02:16:54;0.93;;;0.35;;
72369;SDS011;60343;-32.030;115.880;2023-08-12T02:19:31;0.43;;;0.20;;
72369;SDS011;60343;-32.030;115.880;2023-08-12T02:22:06;1.75;;;0.20;;
72369;SDS011;60343;-32.030;115.880;2023-08-12T02:24:42;0.32;;;0.10;;
72369;SDS011;60343;-32.030;115.880;2023-08-12T02:27:22;0.75;;;0.10;;
72369;SDS011;60343;-32.030;115.880;2023-08-12T02:29:56;0.60;;;0.10;;
72369;SDS011;60343;-32.030;115.880;2023-08-12T02:32:31;0.30;;;0.20;;
72369;SDS011;60343;-32.030;115.880;2023-08-12T02:35:06;0.50;;;0.20;;
72369;SDS011;60343;-32.030;115.880;2023-08-12T02:37:40;0.40;;;0.10;;
72369;SDS011;60343;-32.030;115.880;2023-08-12T02:40:15;0.93;;;0.17;;
72369;SDS011;60343;-32.030;115.880;2023-08-12T02:42:55;0.88;;;0.10;;
72369;SDS011;60343;-32.030;115.880;2023-08-12T02:45:30;0.60;;;0.10;;
72369;SDS011;60343;-32.030;115.880;2023-08-12T02:48:05;1.13;;;0.10;;
72369;SDS011;60343;-32.030;115.880;2023-08-12T02:50:39;0.28;;;0.10;;
72369;SDS011;60343;-32.030;115.880;2023-08-12T02:53:14;2.22;;;0.15;;
72369;SDS011;60343;-32.030;115.880;2023-08-12T02:55:49;1.17;;;0.10;;
72369;SDS011;60343;-32.030;115.880;2023-08-12T02:58:29;1.35;;;0.10;;
72369;SDS011;60343;-32.030;115.880;2023-08-12T03:01:04;0.47;;;0.08;;
72369;SDS011;60343;-32.030;115.880;2023-08-12T03:03:38;1.90;;;0.20;;
72369;SDS011;60343;-32.030;115.880;2023-08-12T03:06:13;0.98;;;0.17;;
72369;SDS011;60343;-32.030;115.880;2023-08-12T03:08:47;0.17;;;0.10;;
72369;SDS011;60343;-32.030;115.880;2023-08-12T03:11:21;0.63;;;0.10;;
72369;SDS011;60343;-32.030;115.880;2023-08-12T03:14:02;0.10;;;0.10;;
72369;SDS011;60343;-32.030;115.880;2023-08-12T03:16:37;0.75;;;0.20;;
72369;SDS011;60343;-32.030;115.880;2023-08-12T03:19:11;1.30;;;0.30;;
72369;SDS011;60343;-32.030;115.880;2023-08-12T03:24:54;0.32;;;0.10;;
72369;SDS011;60343;-32.030;115.880;2023-08-12T03:27:28;0.47;;;0.10;;
72369;SDS011;60343;-32.030;115.880;2023-08-12T03:30:09;0.63;;;0.20;;
72369;SDS011;60343;-32.030;115.880;2023-08-12T03:32:44;0.38;;;0.10;;
72369;SDS011;60343;-32.030;115.880;2023-08-12T03:35:18;0.40;;;0.10;;
72369;SDS011;60343;-32.030;115.880;2023-08-12T03:37:53;1.05;;;0.25;;
72369;SDS011;60343;-32.030;115.880;2023-08-12T03:40:27;0.20;;;0.10;;
72369;SDS011;60343;-32.030;115.880;2023-08-12T03:43:02;0.55;;;0.10;;
72369;SDS011;60343;-32.030;115.880;2023-08-12T03:45:45;0.38;;;0.15;;
72369;SDS011;60343;-32.030;115.880;2023-08-12T03:48:20;0.10;;;0.00;;
72369;SDS011;60343;-32.030;115.880;2023-08-12T03:50:54;0.40;;;0.20;;
72369;SDS011;60343;-32.030;115.880;2023-08-12T03:53:29;1.13;;;0.20;;
72369;SDS011;60343;-32.030;115.880;2023-08-12T03:56:03;0.82;;;0.10;;
72369;SDS011;60343;-32.030;115.880;2023-08-12T03:58:41;0.30;;;0.17;;
72369;SDS011;60343;-32.030;115.880;2023-08-12T04:01:21;0.73;;;0.00;;
72369;SDS011;60343;-32.030;115.880;2023-08-12T04:03:56;0.20;;;0.10;;
72369;SDS011;60343;-32.030;115.880;2023-08-12T04:06:30;0.30;;;0.10;;
72369;SDS011;60343;-32.030;115.880;2023-08-12T04:09:08;0.88;;;0.10;;
72369;SDS011;60343;-32.030;115.880;2023-08-12T04:11:54;0.73;;;0.17;;
72369;SDS011;60343;-32.030;115.880;2023-08-12T04:14:31;0.70;;;0.10;;
72369;SDS011;60343;-32.030;115.880;2023-08-12T04:19:45;0.60;;;0.10;;
72369;SDS011;60343;-32.030;115.880;2023-08-12T04:22:20;0.43;;;0.10;;
72369;SDS011;60343;-32.030;115.880;2023-08-12T04:24:55;0.65;;;0.20;;
72369;SDS011;60343;-32.030;115.880;2023-08-12T04:27:29;0.73;;;0.20;;
72369;SDS011;60343;-32.030;115.880;2023-08-12T04:30:04;0.20;;;0.10;;
72369;SDS011;60343;-32.030;115.880;2023-08-12T04:32:45;2.05;;;0.15;;
72369;SDS011;60343;-32.030;115.880;2023-08-12T04:35:20;0.47;;;0.10;;
72369;SDS011;60343;-32.030;115.880;2023-08-12T04:37:54;0.10;;;0.10;;
72369;SDS011;60343;-32.030;115.880;2023-08-12T04:40:29;0.43;;;0.08;;
72369;SDS011;60343;-32.030;115.880;2023-08-12T04:43:04;0.80;;;0.20;;
72369;SDS011;60343;-32.030;115.880;2023-08-12T04:45:39;0.57;;;0.20;;
72369;SDS011;60343;-32.030;115.880;2023-08-12T04:50:56;1.40;;;0.20;;
72369;SDS011;60343;-32.030;115.880;2023-08-12T04:53:32;1.10;;;0.10;;
72369;SDS011;60343;-32.030;115.880;2023-08-12T04:56:07;0.45;;;0.10;;
72369;SDS011;60343;-32.030;115.880;2023-08-12T04:58:41;1.13;;;0.10;;
72369;SDS011;60343;-32.030;115.880;2023-08-12T05:01:16;0.63;;;0.10;;
72369;SDS011;60343;-32.030;115.880;2023-08-12T05:03:56;0.57;;;0.10;;
72369;SDS011;60343;-32.030;115.880;2023-08-12T05:06:30;0.10;;;0.00;;
72369;SDS011;60343;-32.030;115.880;2023-08-12T05:09:06;0.80;;;0.10;;
72369;SDS011;60343;-32.030;115.880;2023-08-12T05:11:40;0.17;;;0.00;;
72369;SDS011;60343;-32.030;115.880;2023-08-12T05:14:15;0.32;;;0.10;;
72369;SDS011;60343;-32.030;115.880;2023-08-12T05:16:49;0.30;;;0.08;;
72369;SDS011;60343;-32.030;115.880;2023-08-12T05:19:30;0.40;;;0.10;;
72369;SDS011;60343;-32.030;115.880;2023-08-12T05:22:04;1.65;;;0.20;;
72369;SDS011;60343;-32.030;115.880;2023-08-12T05:24:39;0.60;;;0.10;;
72369;SDS011;60343;-32.030;115.880;2023-08-12T05:27:13;0.47;;;0.10;;
72369;SDS011;60343;-32.030;115.880;2023-08-12T05:29:48;0.90;;;0.20;;
72369;SDS011;60343;-32.030;115.880;2023-08-12T05:32:24;1.15;;;0.10;;
72369;SDS011;60343;-32.030;115.880;2023-08-12T05:35:04;0.82;;;0.20;;
72369;SDS011;60343;-32.030;115.880;2023-08-12T05:37:39;0.68;;;0.10;;
72369;SDS011;60343;-32.030;115.880;2023-08-12T05:40:15;0.93;;;0.28;;
72369;SDS011;60343;-32.030;115.880;2023-08-12T05:42:50;0.60;;;0.20;;
72369;SDS011;60343;-32.030;115.880;2023-08-12T05:45:27;0.70;;;0.13;;
72369;SDS011;60343;-32.030;115.880;2023-08-12T05:48:01;0.57;;;0.20;;
72369;SDS011;60343;-32.030;115.880;2023-08-12T05:50:42;0.65;;;0.20;;
72369;SDS011;60343;-32.030;115.880;2023-08-12T05:53:17;0.20;;;0.10;;
72369;SDS011;60343;-32.030;115.880;2023-08-12T05:55:51;0.70;;;0.10;;
72369;SDS011;60343;-32.030;115.880;2023-08-12T05:58:26;0.50;;;0.10;;
72369;SDS011;60343;-32.030;115.880;2023-08-12T06:01:01;1.25;;;0.20;;
72369;SDS011;60343;-32.030;115.880;2023-08-12T06:03:35;0.25;;;0.10;;
72369;SDS011;60343;-32.030;115.880;2023-08-12T06:06:16;0.22;;;0.10;;
72369;SDS011;60343;-32.030;115.880;2023-08-12T06:08:50;0.15;;;0.10;;
72369;SDS011;60343;-32.030;115.880;2023-08-12T06:11:25;1.05;;;0.20;;
72369;SDS011;60343;-32.030;115.880;2023-08-12T06:13:59;0.52;;;0.20;;
72369;SDS011;60343;-32.030;115.880;2023-08-12T06:16:34;0.28;;;0.10;;
72369;SDS011;60343;-32.030;115.880;2023-08-12T06:19:08;0.15;;;0.10;;
72369;SDS011;60343;-32.030;115.880;2023-08-12T06:21:49;1.15;;;0.40;;
72369;SDS011;60343;-32.030;115.880;2023-08-12T06:24:23;0.30;;;0.20;;
72369;SDS011;60343;-32.030;115.880;2023-08-12T06:26:58;0.65;;;0.20;;
72369;SDS011;60343;-32.030;115.880;2023-08-12T06:29:32;0.47;;;0.20;;
72369;SDS011;60343;-32.030;115.880;2023-08-12T06:32:07;0.30;;;0.10;;
72369;SDS011;60343;-32.030;115.880;2023-08-12T06:34:42;0.80;;;0.20;;
72369;SDS011;60343;-32.030;115.880;2023-08-12T06:37:22;1.13;;;0.25;;
72369;SDS011;60343;-32.030;115.880;2023-08-12T06:39:56;0.68;;;0.20;;
72369;SDS011;60343;-32.030;115.880;2023-08-12T06:42:31;1.13;;;0.20;;
72369;SDS011;60343;-32.030;115.880;2023-08-12T06:45:06;1.75;;;0.20;;
72369;SDS011;60343;-32.030;115.880;2023-08-12T06:47:41;0.65;;;0.20;;
72369;SDS011;60343;-32.030;115.880;2023-08-12T06:50:16;1.35;;;0.30;;
72369;SDS011;60343;-32.030;115.880;2023-08-12T06:52:57;1.30;;;0.20;;
72369;SDS011;60343;-32.030;115.880;2023-08-12T06:55:31;1.60;;;0.22;;
72369;SDS011;60343;-32.030;115.880;2023-08-12T06:58:06;0.28;;;0.10;;
72369;SDS011;60343;-32.030;115.880;2023-08-12T07:00:40;0.40;;;0.20;;
72369;SDS011;60343;-32.030;115.880;2023-08-12T07:03:15;1.30;;;0.30;;
72369;SDS011;60343;-32.030;115.880;2023-08-12T07:05:49;0.20;;;0.10;;
72369;SDS011;60343;-32.030;115.880;2023-08-12T07:08:30;0.52;;;0.15;;
72369;SDS011;60343;-32.030;115.880;2023-08-12T07:11:04;0.52;;;0.17;;
72369;SDS011;60343;-32.030;115.880;2023-08-12T07:13:39;0.73;;;0.15;;
72369;SDS011;60343;-32.030;115.880;2023-08-12T07:16:14;1.13;;;0.30;;
72369;SDS011;60343;-32.030;115.880;2023-08-12T07:18:48;2.00;;;0.20;;
72369;SDS011;60343;-32.030;115.880;2023-08-12T07:21:23;2.33;;;0.20;;
72369;SDS011;60343;-32.030;115.880;2023-08-12T07:24:03;1.20;;;0.30;;
72369;SDS011;60343;-32.030;115.880;2023-08-12T07:26:38;0.50;;;0.20;;
72369;SDS011;60343;-32.030;115.880;2023-08-12T07:29:13;0.55;;;0.17;;
72369;SDS011;60343;-32.030;115.880;2023-08-12T07:31:48;0.70;;;0.20;;
72369;SDS011;60343;-32.030;115.880;2023-08-12T07:34:22;1.95;;;0.40;;
72369;SDS011;60343;-32.030;115.880;2023-08-12T07:36:56;5.22;;;0.43;;
72369;SDS011;60343;-32.030;115.880;2023-08-12T07:39:37;1.70;;;0.43;;
72369;SDS011;60343;-32.030;115.880;2023-08-12T07:42:11;0.95;;;0.20;;
72369;SDS011;60343;-32.030;115.880;2023-08-12T07:44:46;0.70;;;0.13;;
72369;SDS011;60343;-32.030;115.880;2023-08-12T07:47:20;1.63;;;0.25;;
72369;SDS011;60343;-32.030;115.880;2023-08-12T07:49:55;0.95;;;0.30;;
72369;SDS011;60343;-32.030;115.880;2023-08-12T07:52:30;0.63;;;0.20;;
72369;SDS011;60343;-32.030;115.880;2023-08-12T07:55:10;1.90;;;0.20;;
72369;SDS011;60343;-32.030;115.880;2023-08-12T07:57:45;0.82;;;0.30;;
72369;SDS011;60343;-32.030;115.880;2023-08-12T08:00:20;1.08;;;0.25;;
72369;SDS011;60343;-32.030;115.880;2023-08-12T08:02:54;1.23;;;0.30;;
72369;SDS011;60343;-32.030;115.880;2023-08-12T08:05:29;1.65;;;0.40;;
72369;SDS011;60343;-32.030;115.880;2023-08-12T08:08:04;1.83;;;0.40;;
72369;SDS011;60343;-32.030;115.880;2023-08-12T08:10:44;0.65;;;0.20;;
72369;SDS011;60343;-32.030;115.880;2023-08-12T08:13:18;0.50;;;0.20;;
72369;SDS011;60343;-32.030;115.880;2023-08-12T08:15:53;1.08;;;0.38;;
72369;SDS011;60343;-32.030;115.880;2023-08-12T08:18:28;1.83;;;0.30;;
72369;SDS011;60343;-32.030;115.880;2023-08-12T08:21:02;1.27;;;0.30;;
72369;SDS011;60343;-32.030;115.880;2023-08-12T08:23:37;1.60;;;0.40;;
72369;SDS011;60343;-32.030;115.880;2023-08-12T08:26:19;2.28;;;0.30;;
72369;SDS011;60343;-32.030;115.880;2023-08-12T08:28:55;0.38;;;0.20;;
72369;SDS011;60343;-32.030;115.880;2023-08-12T08:31:29;1.40;;;0.40;;
72369;SDS011;60343;-32.030;115.880;2023-08-12T08:34:04;1.30;;;0.40;;
72369;SDS011;60343;-32.030;115.880;2023-08-12T08:36:39;2.88;;;0.30;;
72369;SDS011;60343;-32.030;115.880;2023-08-12T08:39:14;2.55;;;0.55;;
72369;SDS011;60343;-32.030;115.880;2023-08-12T08:41:54;2.90;;;0.90;;
72369;SDS011;60343;-32.030;115.880;2023-08-12T08:44:29;2.08;;;0.70;;
72369;SDS011;60343;-32.030;115.880;2023-08-12T08:47:06;3.78;;;0.80;;
72369;SDS011;60343;-32.030;115.880;2023-08-12T08:49:41;2.92;;;0.57;;
72369;SDS011;60343;-32.030;115.880;2023-08-12T08:52:16;1.98;;;0.47;;
72369;SDS011;60343;-32.030;115.880;2023-08-12T08:54:52;1.17;;;0.50;;
72369;SDS011;60343;-32.030;115.880;2023-08-12T08:57:32;2.72;;;0.70;;
72369;SDS011;60343;-32.030;115.880;2023-08-12T09:00:07;2.42;;;0.50;;
72369;SDS011;60343;-32.030;115.880;2023-08-12T09:02:42;1.48;;;0.40;;
72369;SDS011;60343;-32.030;115.880;2023-08-12T09:05:18;1.83;;;0.60;;
72369;SDS011;60343;-32.030;115.880;2023-08-12T09:07:54;2.05;;;0.40;;
72369;SDS011;60343;-32.030;115.880;2023-08-12T09:10:29;3.25;;;0.45;;
72369;SDS011;60343;-32.030;115.880;2023-08-12T09:13:11;0.93;;;0.40;;
72369;SDS011;60343;-32.030;115.880;2023-08-12T09:15:46;1.42;;;0.50;;
72369;SDS011;60343;-32.030;115.880;2023-08-12T09:18:21;1.55;;;0.40;;
72369;SDS011;60343;-32.030;115.880;2023-08-12T09:20:55;1.42;;;0.40;;
72369;SDS011;60343;-32.030;115.880;2023-08-12T09:23:34;2.05;;;0.50;;
72369;SDS011;60343;-32.030;115.880;2023-08-12T09:26:13;2.25;;;0.60;;
72369;SDS011;60343;-32.030;115.880;2023-08-12T09:28:54;4.10;;;0.50;;
72369;SDS011;60343;-32.030;115.880;2023-08-12T09:31:29;0.50;;;0.30;;
72369;SDS011;60343;-32.030;115.880;2023-08-12T09:34:05;1.20;;;0.50;;
72369;SDS011;60343;-32.030;115.880;2023-08-12T09:36:39;1.35;;;0.40;;
72369;SDS011;60343;-32.030;115.880;2023-08-12T09:39:14;1.83;;;0.68;;
72369;SDS011;60343;-32.030;115.880;2023-08-12T09:41:49;2.72;;;0.70;;
72369;SDS011;60343;-32.030;115.880;2023-08-12T09:44:31;2.88;;;0.70;;
72369;SDS011;60343;-32.030;115.880;2023-08-12T09:47:08;2.38;;;0.70;;
72369;SDS011;60343;-32.030;115.880;2023-08-12T09:49:43;6.05;;;1.63;;
72369;SDS011;60343;-32.030;115.880;2023-08-12T09:52:17;4.18;;;1.15;;
72369;SDS011;60343;-32.030;115.880;2023-08-12T09:54:52;2.22;;;0.80;;
72369;SDS011;60343;-32.030;115.880;2023-08-12T09:57:31;2.13;;;0.80;;
72369;SDS011;60343;-32.030;115.880;2023-08-12T10:00:15;3.65;;;0.80;;
72369;SDS011;60343;-32.030;115.880;2023-08-12T10:02:51;1.63;;;0.50;;
72369;SDS011;60343;-32.030;115.880;2023-08-12T10:05:27;1.30;;;0.50;;
72369;SDS011;60343;-32.030;115.880;2023-08-12T10:08:04;1.27;;;0.50;;
72369;SDS011;60343;-32.030;115.880;2023-08-12T10:10:40;1.60;;;0.60;;
72369;SDS011;60343;-32.030;115.880;2023-08-12T10:13:15;2.88;;;0.90;;
72369;SDS011;60343;-32.030;115.880;2023-08-12T10:15:55;1.92;;;0.80;;
72369;SDS011;60343;-32.030;115.880;2023-08-12T10:18:31;2.78;;;1.10;;
72369;SDS011;60343;-32.030;115.880;2023-08-12T10:21:06;2.75;;;1.00;;
72369;SDS011;60343;-32.030;115.880;2023-08-12T10:23:43;3.17;;;0.90;;
72369;SDS011;60343;-32.030;115.880;2023-08-12T10:26:18;2.35;;;0.85;;
72369;SDS011;60343;-32.030;115.880;2023-08-12T10:28:54;3.60;;;1.20;;
72369;SDS011;60343;-32.030;115.880;2023-08-12T10:31:35;2.97;;;0.95;;
72369;SDS011;60343;-32.030;115.880;2023-08-12T10:34:18;3.45;;;1.00;;
72369;SDS011;60343;-32.030;115.880;2023-08-12T10:36:54;2.95;;;1.05;;
72369;SDS011;60343;-32.030;115.880;2023-08-12T10:39:30;2.75;;;1.02;;
72369;SDS011;60343;-32.030;115.880;2023-08-12T10:42:06;3.05;;;0.95;;
72369;SDS011;60343;-32.030;115.880;2023-08-12T10:44:49;3.72;;;1.08;;
72369;SDS011;60343;-32.030;115.880;2023-08-12T10:47:30;3.95;;;1.00;;
72369;SDS011;60343;-32.030;115.880;2023-08-12T10:50:19;3.65;;;1.05;;
72369;SDS011;60343;-32.030;115.880;2023-08-12T10:52:55;3.58;;;1.08;;
72369;SDS011;60343;-32.030;115.880;2023-08-12T10:55:30;4.30;;;1.20;;
72369;SDS011;60343;-32.030;115.880;2023-08-12T10:58:09;3.72;;;1.17;;
72369;SDS011;60343;-32.030;115.880;2023-08-12T11:00:56;2.58;;;0.95;;
72369;SDS011;60343;-32.030;115.880;2023-08-12T11:03:41;2.80;;;1.00;;
72369;SDS011;60343;-32.030;115.880;2023-08-12T11:06:17;4.13;;;0.82;;
72369;SDS011;60343;-32.030;115.880;2023-08-12T11:08:54;3.70;;;0.98;;
72369;SDS011;60343;-32.030;115.880;2023-08-12T11:11:31;2.35;;;0.88;;
72369;SDS011;60343;-32.030;115.880;2023-08-12T11:14:13;3.10;;;0.80;;
72369;SDS011;60343;-32.030;115.880;2023-08-12T11:16:48;2.70;;;0.93;;
72369;SDS011;60343;-32.030;115.880;2023-08-12T11:19:31;2.40;;;1.00;;
72369;SDS011;60343;-32.030;115.880;2023-08-12T11:22:06;3.28;;;1.30;;
72369;SDS011;60343;-32.030;115.880;2023-08-12T11:24:41;3.00;;;1.10;;
72369;SDS011;60343;-32.030;115.880;2023-08-12T11:27:16;2.45;;;1.05;;
72369;SDS011;60343;-32.030;115.880;2023-08-12T11:29:51;3.33;;;1.38;;
72369;SDS011;60343;-32.030;115.880;2023-08-12T11:32:26;4.18;;;1.40;;
72369;SDS011;60343;-32.030;115.880;2023-08-12T11:35:09;3.85;;;1.20;;
72369;SDS011;60343;-32.030;115.880;2023-08-12T11:37:45;4.07;;;1.33;;
72369;SDS011;60343;-32.030;115.880;2023-08-12T11:40:22;4.30;;;1.38;;
72369;SDS011;60343;-32.030;115.880;2023-08-12T11:42:57;3.25;;;1.50;;
72369;SDS011;60343;-32.030;115.880;2023-08-12T11:45:32;4.55;;;1.52;;
72369;SDS011;60343;-32.030;115.880;2023-08-12T11:48:07;4.85;;;1.83;;
72369;SDS011;60343;-32.030;115.880;2023-08-12T11:50:47;4.45;;;1.45;;
72369;SDS011;60343;-32.030;115.880;2023-08-12T11:53:23;4.00;;;1.52;;
72369;SDS011;60343;-32.030;115.880;2023-08-12T11:55:57;4.20;;;1.80;;
72369;SDS011;60343;-32.030;115.880;2023-08-12T11:58:35;4.72;;;1.45;;
72369;SDS011;60343;-32.030;115.880;2023-08-12T12:01:10;3.10;;;1.27;;
72369;SDS011;60343;-32.030;115.880;2023-08-12T12:03:45;3.88;;;1.20;;
72369;SDS011;60343;-32.030;115.880;2023-08-12T12:06:39;3.58;;;1.45;;
72369;SDS011;60343;-32.030;115.880;2023-08-12T12:09:13;3.25;;;1.30;;
72369;SDS011;60343;-32.030;115.880;2023-08-12T12:11:51;3.95;;;1.23;;
72369;SDS011;60343;-32.030;115.880;2023-08-12T12:14:26;4.45;;;1.45;;
72369;SDS011;60343;-32.030;115.880;2023-08-12T12:17:06;3.70;;;1.60;;
72369;SDS011;60343;-32.030;115.880;2023-08-12T12:19:42;4.05;;;1.48;;
72369;SDS011;60343;-32.030;115.880;2023-08-12T12:22:25;5.75;;;1.67;;
72369;SDS011;60343;-32.030;115.880;2023-08-12T12:25:06;4.15;;;1.75;;
72369;SDS011;60343;-32.030;115.880;2023-08-12T12:27:42;4.72;;;1.98;;
72369;SDS011;60343;-32.030;115.880;2023-08-12T12:30:18;4.03;;;1.75;;
72369;SDS011;60343;-32.030;115.880;2023-08-12T12:32:53;6.15;;;1.77;;
72369;SDS011;60343;-32.030;115.880;2023-08-12T12:35:27;3.80;;;1.85;;
72369;SDS011;60343;-32.030;115.880;2023-08-12T12:38:07;5.03;;;2.35;;
72369;SDS011;60343;-32.030;115.880;2023-08-12T12:40:42;6.00;;;2.10;;
72369;SDS011;60343;-32.030;115.880;2023-08-12T12:43:16;5.63;;;2.30;;
72369;SDS011;60343;-32.030;115.880;2023-08-12T12:45:51;4.68;;;1.98;;
72369;SDS011;60343;-32.030;115.880;2023-08-12T12:48:26;4.20;;;2.10;;
72369;SDS011;60343;-32.030;115.880;2023-08-12T12:51:00;4.03;;;1.88;;
72369;SDS011;60343;-32.030;115.880;2023-08-12T12:53:40;4.50;;;1.85;;
72369;SDS011;60343;-32.030;115.880;2023-08-12T12:56:15;8.32;;;2.00;;
72369;SDS011;60343;-32.030;115.880;2023-08-12T12:58:50;5.00;;;2.10;;
72369;SDS011;60343;-32.030;115.880;2023-08-12T13:01:24;5.50;;;2.00;;
72369;SDS011;60343;-32.030;115.880;2023-08-12T13:03:59;4.93;;;2.05;;
72369;SDS011;60343;-32.030;115.880;2023-08-12T13:06:34;4.47;;;2.00;;
72369;SDS011;60343;-32.030;115.880;2023-08-12T13:09:15;4.15;;;1.88;;
72369;SDS011;60343;-32.030;115.880;2023-08-12T13:11:50;4.15;;;1.60;;
72369;SDS011;60343;-32.030;115.880;2023-08-12T13:14:24;4.28;;;1.48;;
72369;SDS011;60343;-32.030;115.880;2023-08-12T13:16:59;3.55;;;1.33;;
72369;SDS011;60343;-32.030;115.880;2023-08-12T13:19:39;2.78;;;1.10;;
72369;SDS011;60343;-32.030;115.880;2023-08-12T13:22:14;4.43;;;1.35;;
72369;SDS011;60343;-32.030;115.880;2023-08-12T13:24:54;3.33;;;1.40;;
72369;SDS011;60343;-32.030;115.880;2023-08-12T13:27:29;3.70;;;1.38;;
72369;SDS011;60343;-32.030;115.880;2023-08-12T13:30:04;4.70;;;1.40;;
72369;SDS011;60343;-32.030;115.880;2023-08-12T13:32:39;5.70;;;1.80;;
72369;SDS011;60343;-32.030;115.880;2023-08-12T13:35:14;3.83;;;1.33;;
72369;SDS011;60343;-32.030;115.880;2023-08-12T13:37:49;5.38;;;1.50;;
72369;SDS011;60343;-32.030;115.880;2023-08-12T13:40:31;3.78;;;1.48;;
72369;SDS011;60343;-32.030;115.880;2023-08-12T13:43:05;4.13;;;1.40;;
72369;SDS011;60343;-32.030;115.880;2023-08-12T13:45:40;3.47;;;1.45;;
72369;SDS011;60343;-32.030;115.880;2023-08-12T13:48:15;5.07;;;1.52;;
72369;SDS011;60343;-32.030;115.880;2023-08-12T13:50:50;5.03;;;2.25;;
72369;SDS011;60343;-32.030;115.880;2023-08-12T13:53:24;3.30;;;1.42;;
72369;SDS011;60343;-32.030;115.880;2023-08-12T13:56:05;4.32;;;1.52;;
72369;SDS011;60343;-32.030;115.880;2023-08-12T13:58:39;4.65;;;1.77;;
72369;SDS011;60343;-32.030;115.880;2023-08-12T14:01:14;4.07;;;1.70;;
72369;SDS011;60343;-32.030;115.880;2023-08-12T14:03:51;4.68;;;2.00;;
72369;SDS011;60343;-32.030;115.880;2023-08-12T14:06:26;5.03;;;2.08;;
72369;SDS011;60343;-32.030;115.880;2023-08-12T14:09:01;4.85;;;2.00;;
72369;SDS011;60343;-32.030;115.880;2023-08-12T14:11:42;6.32;;;1.80;;
72369;SDS011;60343;-32.030;115.880;2023-08-12T14:14:17;3.95;;;1.75;;
72369;SDS011;60343;-32.030;115.880;2023-08-12T14:16:53;4.97;;;1.92;;
72369;SDS011;60343;-32.030;115.880;2023-08-12T14:19:28;6.20;;;2.42;;
72369;SDS011;60343;-32.030;115.880;2023-08-12T14:22:03;6.15;;;1.98;;
72369;SDS011;60343;-32.030;115.880;2023-08-12T14:24:37;5.25;;;1.90;;
72369;SDS011;60343;-32.030;115.880;2023-08-12T14:27:22;5.38;;;1.75;;
72369;SDS011;60343;-32.030;115.880;2023-08-12T14:29:57;4.60;;;1.75;;
72369;SDS011;60343;-32.030;115.880;2023-08-12T14:32:31;4.65;;;1.70;;
72369;SDS011;60343;-32.030;115.880;2023-08-12T14:35:07;5.57;;;1.60;;
72369;SDS011;60343;-32.030;115.880;2023-08-12T14:37:41;4.57;;;1.80;;
72369;SDS011;60343;-32.030;115.880;2023-08-12T14:40:16;4.22;;;1.77;;
72369;SDS011;60343;-32.030;115.880;2023-08-12T14:42:57;3.58;;;1.60;;
72369;SDS011;60343;-32.030;115.880;2023-08-12T14:45:32;3.53;;;1.30;;
72369;SDS011;60343;-32.030;115.880;2023-08-12T14:48:07;3.60;;;1.35;;
72369;SDS011;60343;-32.030;115.880;2023-08-12T14:50:41;4.72;;;1.55;;
72369;SDS011;60343;-32.030;115.880;2023-08-12T14:53:16;4.97;;;1.73;;
72369;SDS011;60343;-32.030;115.880;2023-08-12T14:55:51;5.30;;;1.50;;
72369;SDS011;60343;-32.030;115.880;2023-08-12T14:58:32;3.47;;;1.45;;
72369;SDS011;60343;-32.030;115.880;2023-08-12T15:01:06;5.00;;;1.65;;
72369;SDS011;60343;-32.030;115.880;2023-08-12T15:03:42;5.40;;;1.70;;
72369;SDS011;60343;-32.030;115.880;2023-08-12T15:06:16;4.90;;;1.65;;
72369;SDS011;60343;-32.030;115.880;2023-08-12T15:08:51;4.05;;;1.48;;